Cincinnati, Ohio
Traffic Map
Current Weather Conditions
Cincinnati, Ohio
Clear
Clear
68°
Feels Like: 68°
Wind Chill: 68° Ceiling: Unl
Heat Index: 68° Visibility: 10mi
Dew Point: 66° Wind: 0mph
Humidity: 93% Direction: ° ()
Pressure: 30.04in Gusts: 0mph
Raw Report DataKLUK 281053Z 00000KT 10SM CLR 20/19 A3004 RMK AO2 SLP168 T02000189
Traffic Incident Summary
Active as of:
Severity:
Category:
InformationThere was an issue retrieving the traffic information for this location. Please try a different location or try again shortly.
Advertisements
Track Severe Weather on mobile